Time;durP1;ratioP1;P1;durP2;ratioP2;P2;SDS_P1;SDS_P2;PMS_P1;PMS_P2;Temp;Humidity;BMP_temperature;BMP_pressure;BME280_temperature;BME280_humidity;BME280_pressure;Samples;Min_cycle;Max_cycle;Signal;HPM_P1;HPM_P2
2023/02/21 02:15:36;;;;;;;40.17;23.73;;;8.60;99.90;;;;;;5029452;28;20504;-77
2023/02/21 02:18:24;;;;;;;40.23;23.00;;;8.70;99.90;;;;;;5028705;28;20429;-76
2023/02/21 02:20:58;;;;;;;43.40;23.97;;;8.50;99.90;;;;;;5028676;28;20483;-77
2023/02/21 02:23:39;;;;;;;41.33;24.83;;;8.60;99.90;;;;;;5010763;28;20466;-76
2023/02/21 02:26:07;;;;;;;37.87;24.10;;;8.60;99.90;;;;;;5029012;28;20443;-76
2023/02/21 02:28:39;;;;;;;45.43;26.03;;;8.50;99.90;;;;;;5028792;28;20759;-77
2023/02/21 02:31:13;;;;;;;47.67;26.33;;;8.50;99.90;;;;;;5028638;28;20417;-77
2023/02/21 02:34:16;;;;;;;42.30;24.67;;;8.60;99.90;;;;;;5028316;28;20897;-77
2023/02/21 02:36:56;;;;;;;39.40;23.97;;;8.50;99.90;;;;;;5027987;28;20931;-77
2023/02/21 02:39:24;;;;;;;44.07;24.50;;;8.40;99.90;;;;;;5028943;28;20421;-77
2023/02/21 02:41:56;;;;;;;43.87;24.67;;;8.60;99.90;;;;;;5029068;28;20826;-77
2023/02/21 02:44:59;;;;;;;42.67;24.73;;;8.60;99.90;;;;;;5027515;28;20547;-77
2023/02/21 02:47:31;;;;;;;43.50;25.83;;;8.60;99.90;;;;;;5015575;28;20421;-77
2023/02/21 02:49:58;;;;;;;47.43;26.47;;;8.70;99.90;;;;;;5028455;28;20463;-76
2023/02/21 02:52:24;;;;;;;43.97;25.50;;;8.50;99.90;;;;;;5027686;28;20425;-77
2023/02/21 02:55:02;;;;;;;39.00;24.00;;;8.60;99.90;;;;;;5032378;28;20778;-77
2023/02/21 02:57:39;;;;;;;41.57;24.80;;;8.50;99.90;;;;;;5030743;28;20622;-77
2023/02/21 03:00:06;;;;;;;42.33;25.10;;;8.60;99.90;;;;;;5032398;28;20820;-77
2023/02/21 03:02:53;;;;;;;39.47;23.30;;;8.60;99.90;;;;;;5032230;28;20456;-77
2023/02/21 03:05:30;;;;;;;40.60;23.37;;;8.60;99.90;;;;;;5032289;28;20423;-77
2023/02/21 03:08:14;;;;;;;42.80;26.40;;;8.50;99.90;;;;;;5030685;28;20409;-77
2023/02/21 03:10:57;;;;;;;40.17;25.67;;;8.60;99.90;;;;;;5031858;28;20463;-76
2023/02/21 03:13:25;;;;;;;39.60;24.03;;;8.70;99.90;;;;;;5031767;28;20447;-77
2023/02/21 03:16:09;;;;;;;46.10;26.53;;;8.60;99.90;;;;;;5032421;28;20479;-77
2023/02/21 03:19:06;;;;;;;39.03;23.27;;;8.60;99.90;;;;;;5031643;28;20410;-77
2023/02/21 03:21:41;;;;;;;41.60;24.17;;;8.50;99.90;;;;;;5030363;28;20698;-77
2023/02/21 03:24:09;;;;;;;33.47;22.27;;;8.20;99.90;;;;;;5031844;28;20452;-76
2023/02/21 03:26:39;;;;;;;42.37;25.80;;;8.60;99.90;;;;;;5031905;28;20523;-76
2023/02/21 03:29:06;;;;;;;40.53;25.33;;;8.60;99.90;;;;;;5031642;28;20409;-77
2023/02/21 03:31:42;;;;;;;36.60;23.53;;;8.60;99.90;;;;;;5031428;28;20424;-77
2023/02/21 03:34:08;;;;;;;36.87;21.97;;;8.60;99.90;;;;;;5031513;28;20417;-77
2023/02/21 03:36:36;;;;;;;35.10;23.50;;;8.60;99.90;;;;;;5031693;28;20500;-77
2023/02/21 03:39:02;;;;;;;36.30;23.30;;;8.60;99.90;;;;;;5031495;28;20595;-76
2023/02/21 03:41:28;;;;;;;37.43;23.50;;;8.60;99.90;;;;;;5031402;28;20457;-77
2023/02/21 03:43:53;;;;;;;38.53;23.70;;;8.70;99.90;;;;;;5031378;28;20410;-77
2023/02/21 03:46:19;;;;;;;38.13;23.40;;;8.80;99.90;;;;;;5031675;28;20206;-76
2023/02/21 03:48:45;;;;;;;36.73;22.47;;;8.60;99.90;;;;;;5030115;28;20175;-77
2023/02/21 03:51:11;;;;;;;38.97;23.77;;;8.60;99.90;;;;;;5031333;28;20186;-76
2023/02/21 03:53:36;;;;;;;35.57;22.70;;;8.70;99.90;;;;;;5031125;28;20263;-75
2023/02/21 03:56:02;;;;;;;38.00;22.40;;;8.60;99.90;;;;;;5031640;28;20178;-77
2023/02/21 03:58:28;;;;;;;33.10;21.10;;;8.60;99.90;;;;;;5031217;28;20225;-77
2023/02/21 04:00:54;;;;;;;37.13;23.27;;;8.60;99.90;;;;;;5031134;28;20460;-77
2023/02/21 04:03:19;;;;;;;34.30;23.07;;;8.70;99.90;;;;;;5030753;28;20252;-77
2023/02/21 04:05:45;;;;;;;36.20;23.10;;;8.80;99.90;;;;;;5029292;28;20667;-77
2023/02/21 04:08:11;;;;;;;36.73;22.90;;;8.70;99.90;;;;;;5032907;28;20183;-78
2023/02/21 04:10:37;;;;;;;35.57;23.67;;;8.60;99.90;;;;;;5033841;28;20198;-78
2023/02/21 04:13:02;;;;;;;37.70;22.93;;;8.60;99.90;;;;;;5032839;28;20429;-78
2023/02/21 04:15:28;;;;;;;37.40;22.30;;;8.60;99.90;;;;;;5032438;28;20632;-78
2023/02/21 04:17:54;;;;;;;37.30;22.73;;;8.50;99.90;;;;;;5032686;28;20181;-78
2023/02/21 04:20:19;;;;;;;40.67;24.07;;;8.60;99.90;;;;;;5033873;28;20186;-77
2023/02/21 04:22:45;;;;;;;37.40;24.37;;;8.50;99.90;;;;;;5034115;28;20225;-78
2023/02/21 04:25:11;;;;;;;38.57;25.80;;;8.50;99.90;;;;;;5033937;28;20265;-78
2023/02/21 04:27:36;;;;;;;36.33;24.13;;;8.50;99.90;;;;;;5032408;28;20178;-77
2023/02/21 04:30:02;;;;;;;37.70;22.97;;;8.60;99.90;;;;;;5033696;28;20185;-78
2023/02/21 04:32:28;;;;;;;40.90;23.17;;;8.50;99.90;;;;;;5034143;28;20194;-78
2023/02/21 04:34:54;;;;;;;35.93;22.93;;;8.60;99.90;;;;;;5033437;28;20995;-78
2023/02/21 04:37:20;;;;;;;36.50;24.00;;;8.60;99.90;;;;;;5016422;28;20191;-78
2023/02/21 04:39:45;;;;;;;42.03;25.20;;;8.50;99.90;;;;;;5034740;28;20209;-78
2023/02/21 04:42:11;;;;;;;42.03;25.33;;;8.60;99.90;;;;;;5034243;28;20292;-78
2023/02/21 04:44:37;;;;;;;36.00;22.33;;;8.60;99.90;;;;;;5033348;28;20171;-77
2023/02/21 04:47:03;;;;;;;35.40;22.90;;;8.60;99.90;;;;;;5034786;28;20229;-78
2023/02/21 04:49:29;;;;;;;38.23;23.93;;;8.60;99.90;;;;;;5016643;28;20425;-77
2023/02/21 04:51:55;;;;;;;37.33;23.63;;;8.60;99.90;;;;;;5034941;28;20202;-77
2023/02/21 04:54:20;;;;;;;38.17;24.03;;;8.60;99.90;;;;;;5035096;28;20228;-78
2023/02/21 04:56:46;;;;;;;41.87;24.37;;;8.50;99.90;;;;;;5034893;28;20897;-78
2023/02/21 04:59:12;;;;;;;36.50;23.87;;;8.50;99.90;;;;;;5033522;28;20190;-78
2023/02/21 05:01:37;;;;;;;38.83;23.77;;;8.60;99.90;;;;;;5033588;28;20718;-78
2023/02/21 05:04:03;;;;;;;39.60;24.63;;;8.60;99.90;;;;;;5035494;28;20189;-77
2023/02/21 05:06:31;;;;;;;39.77;25.43;;;8.60;99.90;;;;;;5034331;28;20182;-78
2023/02/21 05:08:57;;;;;;;39.00;24.47;;;8.60;99.90;;;;;;5035468;28;20651;-78
2023/02/21 05:11:23;;;;;;;42.57;25.57;;;8.50;99.90;;;;;;5035904;28;20864;-78
2023/02/21 05:13:50;;;;;;;40.00;25.20;;;8.50;99.90;;;;;;5034602;28;20433;-78
2023/02/21 05:16:16;;;;;;;38.97;24.00;;;8.60;99.90;;;;;;5033439;28;20421;-78
2023/02/21 05:18:43;;;;;;;43.13;26.37;;;8.60;99.90;;;;;;5016413;28;20414;-78
2023/02/21 05:21:09;;;;;;;43.40;26.13;;;8.50;99.90;;;;;;5034083;28;20449;-78
2023/02/21 05:23:35;;;;;;;49.67;27.37;;;8.60;99.90;;;;;;5034552;28;20436;-78
2023/02/21 05:26:10;;;;;;;42.60;25.00;;;8.60;99.90;;;;;;5034673;28;20174;-78
2023/02/21 05:28:36;;;;;;;42.10;25.97;;;8.50;99.90;;;;;;5032107;28;20401;-78
2023/02/21 05:31:02;;;;;;;42.73;25.43;;;8.50;99.90;;;;;;5033362;28;20849;-78
2023/02/21 05:33:28;;;;;;;47.70;26.60;;;8.60;99.90;;;;;;5033797;28;20465;-78
2023/02/21 05:35:54;;;;;;;44.47;27.40;;;8.60;99.90;;;;;;5034396;28;20409;-78
2023/02/21 05:38:21;;;;;;;46.23;26.67;;;8.60;99.90;;;;;;5032625;28;20174;-78
2023/02/21 05:40:47;;;;;;;42.83;25.43;;;8.50;99.90;;;;;;5034756;28;20174;-78
2023/02/21 05:43:13;;;;;;;43.33;24.93;;;8.50;99.90;;;;;;5033028;28;20491;-78
2023/02/21 05:45:40;;;;;;;51.73;27.73;;;8.50;99.90;;;;;;5035331;28;20491;-78
2023/02/21 05:48:05;;;;;;;52.67;29.40;;;8.70;99.90;;;;;;5034953;28;20437;-78
2023/02/21 05:50:31;;;;;;;48.97;28.80;;;8.50;99.90;;;;;;5032728;28;20417;-78
2023/02/21 05:52:57;;;;;;;45.73;27.10;;;8.50;99.90;;;;;;5029935;28;20687;-78
2023/02/21 05:55:23;;;;;;;52.20;28.27;;;8.60;99.90;;;;;;5033163;28;20181;-78
2023/02/21 05:57:49;;;;;;;50.83;28.63;;;8.50;99.90;;;;;;5032914;28;20408;-77
2023/02/21 06:00:18;;;;;;;48.37;25.97;;;8.50;99.90;;;;;;5033979;28;20413;-77
2023/02/21 06:02:43;;;;;;;49.13;27.13;;;8.50;99.90;;;;;;5041739;28;20253;-77
2023/02/21 06:05:09;;;;;;;50.33;29.73;;;8.50;99.90;;;;;;5031609;28;20425;-78
2023/02/21 06:07:35;;;;;;;56.87;29.47;;;8.60;99.90;;;;;;5033309;28;20175;-77
2023/02/21 06:10:01;;;;;;;48.23;27.57;;;8.50;99.90;;;;;;5033419;28;20453;-76
2023/02/21 06:12:27;;;;;;;50.87;30.57;;;8.60;99.90;;;;;;5034478;28;20460;-77
2023/02/21 06:14:53;;;;;;;55.37;28.30;;;8.60;99.90;;;;;;5037695;28;20409;-78
2023/02/21 06:17:18;;;;;;;46.50;28.37;;;8.70;99.90;;;;;;5034304;28;20209;-77
2023/02/21 06:19:44;;;;;;;54.57;28.20;;;8.60;99.90;;;;;;5033147;28;20202;-78
2023/02/21 06:22:09;;;;;;;51.50;29.00;;;8.60;99.90;;;;;;5016250;28;20206;-78
2023/02/21 06:24:35;;;;;;;51.93;28.97;;;8.60;99.90;;;;;;5016688;28;20171;-78
2023/02/21 06:27:01;;;;;;;53.90;29.73;;;8.70;99.90;;;;;;5035140;28;20265;-78
2023/02/21 06:29:26;;;;;;;49.17;28.77;;;8.60;99.90;;;;;;5039667;28;20185;-78
2023/02/21 06:31:57;;;;;;;56.40;29.73;;;8.60;99.90;;;;;;5040453;28;20552;-78
2023/02/21 06:34:23;;;;;;;46.53;27.23;;;8.60;99.90;;;;;;5039535;28;20559;-78
2023/02/21 06:36:55;;;;;;;49.93;28.43;;;8.60;99.90;;;;;;5039454;28;20641;-79
2023/02/21 06:39:22;;;;;;;46.00;29.90;;;8.60;99.90;;;;;;5036160;28;20715;-77
2023/02/21 06:41:49;;;;;;;51.53;30.13;;;8.70;99.90;;;;;;5030019;28;20467;-77
2023/02/21 06:44:15;;;;;;;53.10;29.50;;;8.60;99.90;;;;;;5035225;28;20417;-78
2023/02/21 06:46:42;;;;;;;48.30;27.97;;;8.80;99.90;;;;;;5041163;28;20806;-78
2023/02/21 06:49:08;;;;;;;52.13;28.97;;;8.60;99.90;;;;;;5040893;28;20413;-77
2023/02/21 06:51:35;;;;;;;48.33;28.80;;;8.60;99.90;;;;;;5039984;28;20949;-78
2023/02/21 06:54:01;;;;;;;50.43;28.00;;;8.50;99.90;;;;;;5038197;28;20425;-78
2023/02/21 06:56:27;;;;;;;50.27;27.33;;;8.60;99.90;;;;;;5038546;28;20976;-78
2023/02/21 06:58:53;;;;;;;51.13;29.30;;;8.60;99.90;;;;;;5026861;28;20182;-78
2023/02/21 07:01:19;;;;;;;49.93;27.87;;;8.60;99.90;;;;;;5040614;28;20460;-77
2023/02/21 07:03:46;;;;;;;51.87;28.90;;;8.50;99.90;;;;;;5040925;28;20493;-78
2023/02/21 07:06:12;;;;;;;53.50;28.30;;;8.50;99.90;;;;;;5041075;28;20427;-78
2023/02/21 07:08:38;;;;;;;53.83;29.83;;;8.60;99.90;;;;;;5039923;28;20464;-78
2023/02/21 07:11:04;;;;;;;47.70;26.80;;;8.60;99.90;;;;;;5040978;28;20536;-79
2023/02/21 07:13:31;;;;;;;51.43;28.70;;;8.60;99.90;;;;;;5041192;28;20209;-79
2023/02/21 07:15:56;;;;;;;51.63;27.97;;;8.60;99.90;;;;;;5039555;28;20429;-78
2023/02/21 07:18:22;;;;;;;49.07;28.67;;;8.60;99.90;;;;;;5023002;28;20424;-79
2023/02/21 07:20:48;;;;;;;51.13;29.40;;;8.60;99.90;;;;;;5036442;28;20655;-79
2023/02/21 07:23:14;;;;;;;50.50;28.70;;;8.60;99.90;;;;;;5036029;28;20746;-78
2023/02/21 07:25:40;;;;;;;51.43;28.53;;;8.60;99.90;;;;;;5039132;28;20436;-79
2023/02/21 07:28:06;;;;;;;54.57;28.43;;;8.60;99.90;;;;;;5041593;28;20483;-78
2023/02/21 07:30:33;;;;;;;54.93;29.97;;;8.60;99.90;;;;;;5041549;28;20192;-77
2023/02/21 07:32:58;;;;;;;50.27;29.67;;;8.60;99.90;;;;;;5041280;28;20482;-79
2023/02/21 07:35:24;;;;;;;52.73;30.80;;;8.60;99.90;;;;;;5035836;28;20425;-79
2023/02/21 07:37:50;;;;;;;49.47;28.20;;;8.60;99.90;;;;;;5038288;28;20273;-78
2023/02/21 07:40:16;;;;;;;50.13;28.20;;;8.70;99.90;;;;;;5031101;28;20432;-79
2023/02/21 07:42:42;;;;;;;49.63;28.10;;;8.50;99.90;;;;;;5010544;28;20210;-78
2023/02/21 07:45:10;;;;;;;52.23;29.70;;;8.70;99.90;;;;;;5023650;28;20576;-79
2023/02/21 07:47:35;;;;;;;47.87;27.87;;;8.70;99.90;;;;;;5017972;28;20440;-79
2023/02/21 07:50:01;;;;;;;56.73;29.90;;;8.60;99.90;;;;;;5021398;28;20501;-80
2023/02/21 07:52:27;;;;;;;54.60;29.07;;;8.60;99.90;;;;;;5028789;28;20205;-79
2023/02/21 07:54:52;;;;;;;51.83;28.50;;;8.60;99.90;;;;;;5028523;28;20187;-77
2023/02/21 07:57:18;;;;;;;52.00;28.97;;;8.70;99.90;;;;;;5033810;28;20273;-79
2023/02/21 07:59:44;;;;;;;56.90;28.70;;;8.80;99.90;;;;;;5038582;28;20175;-80
2023/02/21 08:02:13;;;;;;;48.30;27.57;;;8.60;99.90;;;;;;5036063;28;20221;-79
2023/02/21 08:04:40;;;;;;;47.90;26.80;;;8.70;99.90;;;;;;5033602;28;20273;-77
2023/02/21 08:07:06;;;;;;;51.83;27.97;;;8.70;99.90;;;;;;5036043;28;20421;-79
2023/02/21 08:09:32;;;;;;;53.77;29.07;;;8.70;99.90;;;;;;5037654;28;20797;-79
2023/02/21 08:11:59;;;;;;;49.27;28.37;;;8.70;99.90;;;;;;5036324;28;20460;-79
2023/02/21 08:14:24;;;;;;;49.07;27.47;;;8.70;99.90;;;;;;5037640;28;20775;-79
2023/02/21 08:16:50;;;;;;;50.07;28.47;;;8.80;99.90;;;;;;5037436;28;20420;-80
2023/02/21 08:19:16;;;;;;;49.53;28.50;;;8.60;99.90;;;;;;5037977;28;20182;-79
2023/02/21 08:21:46;;;;;;;50.20;26.00;;;8.70;99.90;;;;;;5037632;28;20210;-78
2023/02/21 08:24:12;;;;;;;51.70;27.83;;;8.80;99.90;;;;;;5019818;28;20540;-79
2023/02/21 08:26:40;;;;;;;48.83;25.67;;;8.50;99.90;;;;;;5037083;28;20476;-78
2023/02/21 08:29:07;;;;;;;49.07;27.50;;;8.60;99.90;;;;;;5037215;28;20933;-78
2023/02/21 08:31:37;;;;;;;50.03;27.93;;;8.60;99.90;;;;;;5037436;28;20488;-79
2023/02/21 08:34:04;;;;;;;47.13;26.73;;;8.70;99.90;;;;;;5036423;28;21037;-80
2023/02/21 08:36:34;;;;;;;48.60;25.67;;;8.60;99.90;;;;;;5019246;28;20444;-78
2023/02/21 08:39:00;;;;;;;45.17;25.17;;;8.60;99.90;;;;;;5038661;28;20441;-78
2023/02/21 08:41:38;;;;;;;50.73;25.97;;;8.60;99.90;;;;;;5056356;28;20984;-78
2023/02/21 08:44:05;;;;;;;50.13;25.70;;;8.80;99.90;;;;;;5057436;28;20172;-79
2023/02/21 08:46:30;;;;;;;54.30;27.80;;;8.60;99.90;;;;;;5057134;28;20451;-79
2023/02/21 08:48:56;;;;;;;45.50;26.70;;;8.80;99.90;;;;;;5055223;28;20420;-79
2023/02/21 08:51:26;;;;;;;45.10;25.73;;;8.60;99.90;;;;;;5056147;28;20685;-79
2023/02/21 08:53:52;;;;;;;44.40;25.50;;;8.50;99.90;;;;;;5054243;28;20189;-79
2023/02/21 08:56:20;;;;;;;46.60;25.30;;;8.60;99.90;;;;;;5056214;28;20424;-79
2023/02/21 08:58:46;;;;;;;46.57;25.43;;;8.60;99.90;;;;;;5056225;28;20216;-79
2023/02/21 09:01:12;;;;;;;44.23;24.50;;;8.60;99.90;;;;;;5055378;28;20447;-79
2023/02/21 09:03:37;;;;;;;51.90;26.37;;;8.70;99.90;;;;;;5049436;28;20447;-78
2023/02/21 09:06:03;;;;;;;44.83;24.40;;;8.60;99.90;;;;;;5035213;28;20179;-78
2023/02/21 09:08:32;;;;;;;47.03;25.73;;;8.50;99.90;;;;;;5035208;28;20167;-79
2023/02/21 09:11:00;;;;;;;45.17;25.23;;;8.50;99.90;;;;;;5034710;28;20186;-79
2023/02/21 09:13:28;;;;;;;41.30;22.33;;;8.60;99.90;;;;;;5036482;28;20464;-79
2023/02/21 09:15:54;;;;;;;43.20;24.70;;;8.70;99.90;;;;;;5035289;28;20444;-78
2023/02/21 09:18:20;;;;;;;40.37;22.90;;;8.80;99.90;;;;;;5036517;28;20424;-78
2023/02/21 09:20:51;;;;;;;40.20;22.83;;;8.60;99.90;;;;;;5036790;28;20475;-79
2023/02/21 09:23:20;;;;;;;41.87;21.47;;;8.60;99.90;;;;;;5035789;28;20440;-79
2023/02/21 09:25:47;;;;;;;35.40;20.33;;;8.60;99.90;;;;;;5036578;28;20418;-78
2023/02/21 09:28:14;;;;;;;37.87;22.03;;;8.60;99.90;;;;;;5036001;28;20405;-79
2023/02/21 09:30:39;;;;;;;44.63;23.13;;;8.60;99.90;;;;;;5034509;28;20432;-79
2023/02/21 09:33:05;;;;;;;34.13;19.00;;;8.70;99.90;;;;;;5035035;28;20699;-79
2023/02/21 09:35:31;;;;;;;34.63;20.07;;;8.70;99.90;;;;;;5032339;28;20675;-79
2023/02/21 09:37:58;;;;;;;32.23;18.43;;;8.70;99.90;;;;;;5011951;28;20182;-78
2023/02/21 09:40:26;;;;;;;36.40;19.37;;;8.60;99.90;;;;;;5043594;28;20265;-78
2023/02/21 09:42:54;;;;;;;32.20;19.10;;;8.60;99.90;;;;;;5049375;28;20460;-77
2023/02/21 09:45:21;;;;;;;36.33;19.80;;;8.60;99.90;;;;;;5049558;28;20515;-78
2023/02/21 09:47:53;;;;;;;34.97;21.17;;;8.50;99.90;;;;;;5047739;28;20419;-78
2023/02/21 09:50:26;;;;;;;35.03;20.43;;;8.60;99.90;;;;;;5031276;28;20436;-78
2023/02/21 09:52:55;;;;;;;37.30;19.13;;;8.60;99.90;;;;;;5047178;28;20558;-78
2023/02/21 09:55:32;;;;;;;35.87;18.67;;;8.50;99.90;;;;;;5049155;28;20821;-78
2023/02/21 09:57:58;;;;;;;33.63;18.53;;;8.60;99.90;;;;;;5047696;28;20499;-78
2023/02/21 10:00:36;;;;;;;34.00;19.40;;;8.60;99.90;;;;;;5047754;28;20420;-78
2023/02/21 10:03:07;;;;;;;32.73;18.30;;;8.50;99.90;;;;;;5047969;28;20470;-78
2023/02/21 10:05:56;;;;;;;30.40;18.33;;;8.40;99.90;;;;;;5009492;28;20414;-78
2023/02/21 10:08:37;;;;;;;37.07;18.87;;;8.60;99.90;;;;;;5008554;28;20446;-78
2023/02/21 10:11:13;;;;;;;33.23;18.20;;;8.60;99.90;;;;;;5008126;28;20913;-78
2023/02/21 10:13:39;;;;;;;33.00;18.30;;;8.60;99.90;;;;;;5009155;28;20580;-78
2023/02/21 10:16:30;;;;;;;37.70;20.20;;;8.60;99.90;;;;;;5009441;28;20970;-78
2023/02/21 10:19:15;;;;;;;35.73;19.13;;;8.50;99.90;;;;;;4991763;28;20293;-77
2023/02/21 10:21:44;;;;;;;33.70;19.87;;;8.80;99.90;;;;;;5008053;28;20464;-78
2023/02/21 10:24:22;;;;;;;38.80;18.67;;;8.70;99.90;;;;;;5009419;28;20417;-78
2023/02/21 10:27:00;;;;;;;33.77;17.77;;;8.60;99.90;;;;;;5009483;28;20505;-78
2023/02/21 10:29:39;;;;;;;32.40;19.47;;;8.80;99.90;;;;;;5009733;28;20450;-78
2023/02/21 10:32:05;;;;;;;30.00;17.30;;;8.80;99.90;;;;;;5009369;28;20430;-78
2023/02/21 10:34:33;;;;;;;26.10;15.43;;;8.70;99.90;;;;;;5009046;28;20453;-78
2023/02/21 10:37:41;;;;;;;26.57;15.63;;;8.80;99.90;;;;;;4991287;28;20452;-78
2023/02/21 10:40:26;;;;;;;26.90;14.93;;;8.70;99.90;;;;;;5031643;28;20431;-78
2023/02/21 10:43:14;;;;;;;24.30;14.27;;;8.80;99.90;;;;;;5046989;28;20472;-78
2023/02/21 10:46:10;;;;;;;26.27;15.40;;;9.00;99.90;;;;;;5048649;28;20419;-77
2023/02/21 10:48:37;;;;;;;25.67;15.03;;;8.80;99.90;;;;;;5026725;28;20419;-78
2023/02/21 10:51:07;;;;;;;25.20;15.07;;;8.80;99.90;;;;;;5047148;28;20534;-78
2023/02/21 10:53:46;;;;;;;23.50;14.47;;;8.80;99.90;;;;;;5046364;28;20467;-78
2023/02/21 10:56:17;;;;;;;28.53;15.20;;;8.80;99.90;;;;;;5048656;28;20474;-78
2023/02/21 10:58:53;;;;;;;27.03;15.83;;;8.70;99.90;;;;;;5048289;28;20513;-78
2023/02/21 11:01:25;;;;;;;25.10;15.00;;;8.80;99.90;;;;;;5047556;28;20455;-78
2023/02/21 11:03:54;;;;;;;24.83;14.53;;;8.80;99.90;;;;;;5041489;28;20455;-78
2023/02/21 11:06:38;;;;;;;27.00;15.57;;;8.80;99.90;;;;;;5027539;28;20443;-78
2023/02/21 11:09:23;;;;;;;22.90;14.47;;;9.00;99.90;;;;;;5010584;28;20534;-78
2023/02/21 11:12:00;;;;;;;29.70;14.83;;;8.90;99.90;;;;;;5010612;28;20445;-78
2023/02/21 11:14:26;;;;;;;27.03;14.47;;;8.90;99.90;;;;;;5029262;28;20797;-78
2023/02/21 11:17:22;;;;;;;26.40;14.30;;;8.90;99.90;;;;;;5030814;28;20420;-77
2023/02/21 11:20:07;;;;;;;21.30;12.87;;;8.80;99.90;;;;;;5022894;28;20425;-77
2023/02/21 11:22:33;;;;;;;26.30;14.70;;;8.90;99.90;;;;;;5032229;28;20671;-78
2023/02/21 11:25:07;;;;;;;19.67;13.37;;;9.00;99.90;;;;;;5031799;28;20424;-77
2023/02/21 11:27:37;;;;;;;21.20;13.70;;;8.90;99.90;;;;;;5013950;28;20174;-78
2023/02/21 11:30:20;;;;;;;19.83;13.10;;;9.00;99.90;;;;;;5031717;28;20985;-77
2023/02/21 11:32:53;;;;;;;21.53;12.90;;;8.90;99.90;;;;;;5030560;28;20441;-77
2023/02/21 11:35:18;;;;;;;20.97;12.53;;;9.00;99.90;;;;;;5031729;28;20508;-78
2023/02/21 11:37:56;;;;;;;19.57;12.47;;;9.00;99.90;;;;;;5030240;28;20499;-77
2023/02/21 11:40:34;;;;;;;18.50;12.00;;;9.00;99.90;;;;;;5027149;28;20631;-77
2023/02/21 11:43:28;;;;;;;20.07;12.00;;;9.10;99.90;;;;;;5051364;28;20856;-77
2023/02/21 11:46:12;;;;;;;20.50;11.20;;;9.20;99.90;;;;;;5051576;28;20419;-78
2023/02/21 11:48:58;;;;;;;17.80;11.10;;;9.20;99.90;;;;;;5051410;28;20409;-78
2023/02/21 11:51:37;;;;;;;18.77;11.30;;;9.30;99.90;;;;;;5049976;28;20434;-78
2023/02/21 11:54:04;;;;;;;19.40;11.40;;;9.40;99.90;;;;;;5050611;28;20459;-78
2023/02/21 11:56:51;;;;;;;19.10;12.27;;;9.40;99.90;;;;;;5050127;28;20474;-78
2023/02/21 11:59:38;;;;;;;20.53;12.80;;;9.50;99.90;;;;;;5049906;28;20423;-77
2023/02/21 12:02:45;;;;;;;25.30;15.33;;;9.50;99.90;;;;;;5051348;28;20456;-77
2023/02/21 12:05:16;;;;;;;23.00;13.17;;;9.50;99.90;;;;;;5008660;28;20479;-77
2023/02/21 12:07:51;;;;;;;24.60;13.90;;;9.50;99.90;;;;;;5008574;28;20856;-78
2023/02/21 12:11:02;;;;;;;23.87;15.23;;;9.50;99.90;;;;;;5012648;28;20829;-77
2023/02/21 12:13:59;;;;;;;25.43;15.30;;;9.60;99.90;;;;;;5028654;28;20437;-78
2023/02/21 12:16:49;;;;;;;22.50;15.27;;;9.60;99.90;;;;;;5030071;28;20432;-78
2023/02/21 12:19:42;;;;;;;22.50;14.57;;;9.50;99.90;;;;;;5013322;28;20417;-78
2023/02/21 12:22:27;;;;;;;23.33;14.77;;;9.50;99.90;;;;;;5029529;28;20525;-78
2023/02/21 12:25:33;;;;;;;20.70;13.07;;;9.60;99.90;;;;;;5030290;28;20413;-77
2023/02/21 12:28:20;;;;;;;24.83;14.40;;;9.60;99.90;;;;;;5025118;28;20417;-78
2023/02/21 12:31:14;;;;;;;24.87;15.57;;;9.60;99.90;;;;;;5029186;28;20409;-78
2023/02/21 12:33:42;;;;;;;20.67;15.27;;;9.60;99.90;;;;;;5029144;28;20499;-78
2023/02/21 12:36:20;;;;;;;26.70;16.43;;;9.60;99.90;;;;;;5029431;28;20630;-78
2023/02/21 12:39:22;;;;;;;28.27;18.53;;;9.60;99.90;;;;;;5029343;28;20829;-78
2023/02/21 12:41:59;;;;;;;29.37;17.40;;;9.60;99.90;;;;;;5049347;28;20468;-78
2023/02/21 12:44:34;;;;;;;29.90;16.97;;;9.50;99.90;;;;;;5048986;28;20876;-77
2023/02/21 12:47:06;;;;;;;28.73;17.67;;;9.50;99.90;;;;;;5050267;28;20408;-78
2023/02/21 12:49:52;;;;;;;26.00;17.67;;;9.50;99.90;;;;;;5049049;28;20417;-78
2023/02/21 12:52:33;;;;;;;28.20;17.33;;;9.50;99.90;;;;;;5050244;28;20569;-78
2023/02/21 12:55:22;;;;;;;28.40;16.67;;;9.40;99.90;;;;;;5049931;28;20850;-78
2023/02/21 12:57:59;;;;;;;28.60;18.67;;;9.40;99.90;;;;;;5048695;28;20886;-78
2023/02/21 13:00:33;;;;;;;27.87;17.30;;;9.40;99.90;;;;;;5050004;28;20420;-78
2023/02/21 13:03:56;;;;;;;26.37;17.67;;;9.40;99.90;;;;;;5048892;28;20467;-78
2023/02/21 13:06:46;;;;;;;30.67;20.50;;;9.50;99.90;;;;;;4968676;28;21052;-78
2023/02/21 13:09:25;;;;;;;30.37;19.53;;;9.50;99.90;;;;;;4968542;28;20427;-77
2023/02/21 13:11:53;;;;;;;31.10;18.67;;;9.10;99.90;;;;;;5003416;28;20528;-78
2023/02/21 13:14:48;;;;;;;34.20;19.80;;;9.50;99.90;;;;;;5008902;28;20544;-78
2023/02/21 13:17:15;;;;;;;32.07;19.13;;;9.50;99.90;;;;;;5003241;28;20414;-78
2023/02/21 13:20:06;;;;;;;29.97;19.13;;;9.50;99.90;;;;;;4992418;28;20810;-78
2023/02/21 13:26:14;;;;;;;32.83;19.90;;;9.50;99.90;;;;;;5010132;28;20418;-78
2023/02/21 13:28:41;;;;;;;34.90;21.47;;;9.40;99.90;;;;;;5009855;28;20460;-78
2023/02/21 13:31:20;;;;;;;34.97;21.30;;;9.40;99.90;;;;;;5008441;28;20919;-78
2023/02/21 13:33:59;;;;;;;40.33;21.27;;;9.40;99.90;;;;;;5009684;28;20893;-79
2023/02/21 13:36:36;;;;;;;31.70;20.23;;;9.40;99.90;;;;;;5009570;28;20827;-78
2023/02/21 13:39:08;;;;;;;35.30;19.93;;;9.40;99.90;;;;;;5013930;28;20409;-78
2023/02/21 13:42:04;;;;;;;35.50;21.60;;;9.40;99.90;;;;;;5048934;28;20475;-78
2023/02/21 13:44:33;;;;;;;34.17;20.87;;;9.40;99.90;;;;;;5043550;28;20420;-78
2023/02/21 13:47:09;;;;;;;32.57;20.53;;;9.40;99.90;;;;;;5047691;28;20424;-77
2023/02/21 13:49:46;;;;;;;38.03;21.40;;;9.40;99.90;;;;;;5047891;28;20431;-78
2023/02/21 13:52:21;;;;;;;34.47;19.97;;;9.40;99.90;;;;;;5031089;28;20444;-78
2023/02/21 13:55:15;;;;;;;32.83;20.37;;;9.40;99.90;;;;;;5047191;28;20427;-78
2023/02/21 13:57:52;;;;;;;36.27;19.93;;;9.50;99.90;;;;;;5047364;28;20518;-78
2023/02/21 14:00:24;;;;;;;35.77;21.03;;;9.40;99.90;;;;;;5047864;28;20424;-78
2023/02/21 14:02:55;;;;;;;33.83;20.70;;;9.50;99.90;;;;;;5048823;28;20723;-78
2023/02/21 14:05:21;;;;;;;31.20;19.17;;;9.40;99.90;;;;;;5028612;28;20428;-78
2023/02/21 14:07:55;;;;;;;37.70;21.67;;;9.50;99.90;;;;;;5027500;28;20425;-78
2023/02/21 14:10:39;;;;;;;30.73;19.90;;;9.40;99.90;;;;;;5029068;28;20413;-78
2023/02/21 14:13:32;;;;;;;32.67;19.80;;;9.40;99.90;;;;;;5028731;28;20503;-78
2023/02/21 14:16:16;;;;;;;38.13;21.97;;;9.40;99.90;;;;;;5029482;28;20428;-78
2023/02/21 14:18:52;;;;;;;37.47;20.17;;;9.40;99.90;;;;;;5027462;28;20497;-78
2023/02/21 14:21:21;;;;;;;33.40;20.30;;;9.50;99.90;;;;;;5028931;28;20456;-78
2023/02/21 14:23:55;;;;;;;33.43;20.73;;;9.50;99.90;;;;;;5029071;28;20536;-77
2023/02/21 14:26:56;;;;;;;35.47;21.73;;;9.50;99.90;;;;;;5028332;28;20436;-78
2023/02/21 14:29:41;;;;;;;36.47;21.43;;;9.40;99.90;;;;;;5028874;28;20836;-78
2023/02/21 14:32:07;;;;;;;38.03;21.40;;;9.40;99.90;;;;;;5027625;28;20441;-77
2023/02/21 14:34:51;;;;;;;35.70;20.73;;;9.40;99.90;;;;;;5028700;28;20931;-77
2023/02/21 14:37:34;;;;;;;38.47;22.10;;;9.50;99.90;;;;;;5027360;28;20186;-77
2023/02/21 14:40:05;;;;;;;37.73;22.00;;;9.50;99.90;;;;;;5038892;28;20461;-78
2023/02/21 14:43:03;;;;;;;39.33;22.27;;;9.50;99.90;;;;;;5047202;28;20479;-77
2023/02/21 14:45:54;;;;;;;43.30;23.10;;;9.50;99.90;;;;;;5024887;28;20799;-78
2023/02/21 14:48:44;;;;;;;39.80;21.77;;;9.50;99.90;;;;;;5048707;28;20424;-78
2023/02/21 14:51:41;;;;;;;34.03;21.33;;;9.40;99.90;;;;;;5052225;28;20511;-78
2023/02/21 14:54:36;;;;;;;38.30;21.50;;;9.40;99.90;;;;;;5051057;28;20443;-78
2023/02/21 14:57:33;;;;;;;35.13;19.60;;;9.40;99.90;;;;;;5052433;28;20469;-77
2023/02/21 15:00:35;;;;;;;34.00;19.07;;;9.40;99.90;;;;;;5052419;28;20428;-78
2023/02/21 15:03:13;;;;;;;36.27;22.17;;;9.40;99.90;;;;;;4993315;28;20547;-78
2023/02/21 15:05:52;;;;;;;39.80;22.23;;;9.40;99.90;;;;;;5006455;28;20422;-77
2023/02/21 15:08:17;;;;;;;40.10;22.13;;;9.40;99.90;;;;;;5011145;28;20426;-78
2023/02/21 15:10:47;;;;;;;36.37;21.63;;;9.40;99.90;;;;;;5012142;28;20484;-78
2023/02/21 15:13:24;;;;;;;41.83;22.33;;;9.40;99.90;;;;;;5012339;28;20489;-77
2023/02/21 15:16:06;;;;;;;36.10;22.40;;;9.10;99.90;;;;;;5012537;28;20425;-78
2023/02/21 15:18:34;;;;;;;31.30;18.83;;;9.40;99.90;;;;;;5012290;28;20952;-78
2023/02/21 15:21:02;;;;;;;37.60;22.70;;;9.30;99.90;;;;;;5010898;28;20537;-78
2023/02/21 15:23:28;;;;;;;41.50;22.63;;;9.40;99.90;;;;;;5011985;28;20438;-78